createdAt,value
2022-11-17T00:01:46.363Z,77.23
2022-11-17T00:04:15.232Z,77.06
2022-11-17T00:06:43.970Z,77.23
2022-11-17T00:09:18.144Z,76.79
2022-11-17T00:12:07.411Z,76.50
2022-11-17T00:14:41.981Z,76.77
2022-11-17T00:17:13.381Z,76.94
2022-11-17T00:20:00.533Z,76.75
2022-11-17T00:22:32.968Z,76.22
2022-11-17T00:25:01.839Z,76.99
2022-11-17T00:27:30.737Z,76.20
2022-11-17T00:29:59.210Z,76.44
2022-11-17T00:32:46.178Z,76.71
2022-11-17T00:35:14.983Z,76.70
2022-11-17T00:38:02.168Z,76.40
2022-11-17T00:40:31.162Z,76.65
2022-11-17T00:42:59.922Z,77.56
2022-11-17T00:45:28.475Z,77.35
2022-11-17T00:47:57.128Z,76.63
2022-11-17T00:50:25.766Z,76.72
2022-11-17T00:52:54.454Z,76.65
2022-11-17T00:55:23.761Z,75.95
2022-11-17T00:57:52.570Z,76.05
2022-11-17T01:00:22.176Z,76.60
2022-11-17T01:02:51.032Z,76.61
2022-11-17T01:05:19.659Z,76.08
2022-11-17T01:07:48.266Z,76.42
2022-11-17T01:10:17.204Z,75.63
2022-11-17T01:12:45.916Z,75.76
2022-11-17T01:15:14.467Z,76.12
2022-11-17T01:17:43.189Z,75.59
2022-11-17T01:20:12.121Z,76.56
2022-11-17T01:22:40.890Z,75.90
2022-11-17T01:25:09.786Z,75.83
2022-11-17T01:27:38.579Z,76.68
2022-11-17T01:30:08.104Z,76.58
2022-11-17T01:32:36.783Z,75.84
2022-11-17T01:35:05.488Z,75.97
2022-11-17T01:37:34.237Z,76.14
2022-11-17T01:40:02.857Z,76.77
2022-11-17T01:42:32.221Z,76.86
2022-11-17T01:45:25.776Z,75.80
2022-11-17T01:48:00.845Z,76.32
2022-11-17T01:50:40.121Z,75.93
2022-11-17T01:53:15.016Z,75.70
2022-11-17T01:55:53.100Z,76.08
2022-11-17T01:58:37.378Z,76.03
2022-11-17T02:01:06.524Z,75.82
2022-11-17T02:03:37.735Z,76.36
2022-11-17T02:06:30.784Z,75.79
2022-11-17T02:09:03.296Z,75.96
2022-11-17T02:11:36.699Z,75.39
2022-11-17T02:14:08.538Z,75.76
2022-11-17T02:16:36.782Z,75.41
2022-11-17T02:19:05.347Z,75.10
2022-11-17T02:22:02.705Z,75.25
2022-11-17T02:24:55.661Z,75.52
2022-11-17T02:27:41.207Z,74.89
2022-11-17T02:30:14.329Z,75.31
2022-11-17T02:33:01.942Z,75.31
2022-11-17T02:35:46.370Z,75.25
2022-11-17T02:38:29.847Z,75.45
2022-11-17T02:41:20.147Z,75.40
2022-11-17T02:44:06.201Z,75.64
2022-11-17T02:46:46.644Z,75.90
2022-11-17T02:49:26.660Z,75.32
2022-11-17T02:51:59.961Z,75.65
2022-11-17T02:54:31.500Z,75.35
2022-11-17T02:56:59.560Z,75.59
2022-11-17T02:59:38.494Z,75.67
2022-11-17T03:02:19.559Z,75.50
2022-11-17T03:05:18.730Z,75.70
2022-11-17T03:08:22.093Z,75.81
2022-11-17T03:11:11.403Z,75.82
2022-11-17T03:13:51.294Z,75.98
2022-11-17T03:16:28.895Z,75.42
2022-11-17T03:19:19.506Z,75.36
2022-11-17T03:22:05.963Z,76.01
2022-11-17T03:24:39.902Z,75.43
2022-11-17T03:27:27.186Z,75.43
2022-11-17T03:30:00.901Z,75.05
2022-11-17T03:32:33.913Z,75.74
2022-11-17T03:35:12.058Z,75.93
2022-11-17T03:37:46.394Z,75.91
2022-11-17T03:40:17.648Z,75.18
2022-11-17T03:42:53.475Z,75.20
2022-11-17T03:45:28.785Z,75.50
2022-11-17T03:48:12.485Z,75.42
2022-11-17T03:50:56.263Z,74.71
2022-11-17T03:53:24.992Z,74.91
2022-11-17T03:55:56.183Z,75.34
2022-11-17T03:58:29.628Z,75.79
2022-11-17T04:01:00.884Z,75.35
2022-11-17T04:03:39.006Z,75.45
2022-11-17T04:06:07.803Z,74.85
2022-11-17T04:08:36.279Z,75.65
2022-11-17T04:11:23.055Z,74.97
2022-11-17T04:14:10.293Z,75.01
2022-11-17T04:16:39.247Z,75.12
2022-11-17T04:19:07.724Z,74.52
2022-11-17T04:21:37.447Z,74.67
2022-11-17T04:24:06.498Z,75.06
2022-11-17T04:26:53.425Z,74.93
2022-11-17T04:29:21.986Z,74.53
2022-11-17T04:31:50.507Z,74.31
2022-11-17T04:34:19.017Z,74.39
2022-11-17T04:36:47.809Z,73.85
2022-11-17T04:39:16.761Z,74.27
2022-11-17T04:41:54.711Z,75.22
2022-11-17T04:44:28.013Z,74.39
2022-11-17T04:46:57.540Z,74.90
2022-11-17T04:49:26.944Z,74.38
2022-11-17T04:51:55.583Z,74.85
2022-11-17T04:54:25.368Z,74.41
2022-11-17T04:56:55.297Z,74.71
2022-11-17T04:59:24.733Z,74.52
2022-11-17T05:01:53.359Z,73.80
2022-11-17T05:04:40.831Z,74.39
2022-11-17T05:07:10.005Z,73.82
2022-11-17T05:09:38.952Z,73.29
2022-11-17T05:12:26.051Z,73.57
2022-11-17T05:14:54.793Z,73.48
2022-11-17T05:17:23.256Z,73.62
2022-11-17T05:19:53.947Z,74.23
2022-11-17T05:22:43.895Z,73.89
2022-11-17T05:25:12.491Z,74.10
2022-11-17T05:27:41.025Z,73.75
2022-11-17T05:30:10.367Z,72.69
2022-11-17T05:32:38.975Z,73.35
2022-11-17T05:35:08.108Z,72.11
2022-11-17T05:37:36.619Z,71.96
2022-11-17T05:40:05.535Z,72.26
2022-11-17T05:42:36.023Z,71.61
2022-11-17T05:45:04.747Z,72.22
2022-11-17T05:47:33.514Z,70.56
2022-11-17T05:50:02.003Z,70.84
2022-11-17T05:52:30.702Z,70.58
2022-11-17T05:54:59.240Z,70.07
2022-11-17T05:57:32.856Z,70.65
2022-11-17T06:00:05.137Z,69.77
2022-11-17T06:02:52.542Z,69.72
2022-11-17T06:05:24.707Z,70.49
2022-11-17T06:07:55.539Z,69.58
2022-11-17T06:10:24.101Z,70.49
2022-11-17T06:12:52.763Z,71.58
2022-11-17T06:15:21.599Z,71.04
2022-11-17T06:17:56.083Z,71.39
2022-11-17T06:20:24.038Z,70.70
2022-11-17T06:22:52.264Z,71.94
2022-11-17T06:25:21.782Z,72.06
2022-11-17T06:27:52.524Z,72.14
2022-11-17T06:30:21.617Z,71.88
2022-11-17T06:32:51.500Z,71.42
2022-11-17T06:35:20.157Z,72.55
2022-11-17T06:37:48.798Z,72.36
2022-11-17T06:40:18.156Z,72.43
2022-11-17T06:43:04.763Z,71.54
2022-11-17T06:45:47.505Z,72.43
2022-11-17T06:48:18.109Z,72.18
2022-11-17T06:50:49.446Z,71.57
2022-11-17T06:53:18.189Z,71.57
2022-11-17T06:56:05.041Z,71.82
2022-11-17T06:58:34.295Z,72.19
2022-11-17T07:01:05.708Z,71.24
2022-11-17T07:03:38.574Z,71.04
2022-11-17T07:06:11.271Z,71.04
2022-11-17T07:08:40.673Z,71.82
2022-11-17T07:11:12.693Z,70.85
2022-11-17T07:13:41.488Z,70.77
2022-11-17T07:16:17.450Z,70.88
2022-11-17T07:18:48.845Z,71.27
2022-11-17T07:21:18.774Z,70.53
2022-11-17T07:23:47.899Z,70.99
2022-11-17T07:26:16.641Z,70.55
2022-11-17T07:28:47.757Z,70.31
2022-11-17T07:31:16.737Z,70.67
2022-11-17T07:33:45.490Z,70.50
2022-11-17T07:36:17.769Z,70.31
2022-11-17T07:38:46.500Z,71.25
2022-11-17T07:41:15.699Z,70.11
2022-11-17T07:43:44.535Z,70.41
2022-11-17T07:46:15.963Z,70.88
2022-11-17T07:48:45.138Z,70.12
2022-11-17T07:51:14.763Z,70.31
2022-11-17T07:53:43.414Z,70.61
2022-11-17T07:56:12.463Z,70.48
2022-11-17T07:58:41.667Z,70.67
2022-11-17T08:01:13.366Z,70.12
2022-11-17T08:03:42.528Z,70.33
2022-11-17T08:06:11.822Z,69.34
2022-11-17T08:08:40.658Z,70.50
2022-11-17T08:11:13.685Z,69.76
2022-11-17T08:13:42.937Z,68.90
2022-11-17T08:16:11.444Z,68.37
2022-11-17T08:18:40.993Z,68.83
2022-11-17T08:21:14.764Z,69.52
2022-11-17T08:23:43.934Z,70.05
2022-11-17T08:26:13.033Z,69.22
2022-11-17T08:28:41.846Z,68.21
2022-11-17T08:31:10.748Z,69.40
2022-11-17T08:33:40.005Z,69.63
2022-11-17T08:36:09.164Z,69.21
2022-11-17T08:38:38.202Z,68.67
2022-11-17T08:41:09.306Z,68.33
2022-11-17T08:43:38.614Z,69.30
2022-11-17T08:46:11.932Z,69.70
2022-11-17T08:48:41.101Z,69.36
2022-11-17T08:51:10.267Z,69.02
2022-11-17T08:53:38.785Z,69.32
2022-11-17T08:56:08.616Z,70.17
2022-11-17T08:58:45.169Z,69.44
2022-11-17T09:01:16.650Z,69.98
2022-11-17T09:03:47.165Z,69.38
2022-11-17T09:06:17.433Z,69.10
2022-11-17T09:08:47.257Z,69.96
2022-11-17T09:11:17.240Z,70.19
2022-11-17T09:13:47.496Z,69.48
2022-11-17T09:16:17.481Z,69.38
2022-11-17T09:18:46.514Z,68.94
2022-11-17T09:21:16.929Z,69.53
2022-11-17T09:23:45.853Z,70.26
2022-11-17T09:26:16.070Z,69.74
2022-11-17T09:28:46.050Z,69.63
2022-11-17T09:31:17.996Z,69.74
2022-11-17T09:33:47.199Z,70.15
2022-11-17T09:36:17.385Z,69.52
2022-11-17T09:38:47.505Z,69.73
2022-11-17T09:41:22.566Z,69.89
2022-11-17T09:44:15.008Z,69.86
2022-11-17T09:47:03.890Z,69.79
2022-11-17T09:49:36.489Z,70.07
2022-11-17T09:52:22.828Z,70.10
2022-11-17T09:55:01.168Z,70.56
2022-11-17T09:57:50.184Z,70.11
2022-11-17T10:00:23.777Z,70.32
2022-11-17T10:02:54.648Z,71.11
2022-11-17T10:05:26.264Z,70.54
2022-11-17T10:08:00.816Z,70.64
2022-11-17T10:10:40.196Z,70.26
2022-11-17T10:13:24.837Z,70.68
2022-11-17T10:16:13.300Z,70.51
2022-11-17T10:18:41.803Z,70.32
2022-11-17T10:21:10.531Z,70.30
2022-11-17T10:23:47.536Z,70.90
2022-11-17T10:26:17.504Z,70.78
2022-11-17T10:28:46.758Z,71.44
2022-11-17T10:31:18.065Z,71.15
2022-11-17T10:33:51.339Z,71.20
2022-11-17T10:36:31.611Z,71.60
2022-11-17T10:39:01.655Z,71.08
2022-11-17T10:41:51.029Z,70.96
2022-11-17T10:44:28.633Z,71.47
2022-11-17T10:47:02.714Z,71.19
2022-11-17T10:49:33.939Z,71.65
2022-11-17T10:52:15.340Z,71.82
2022-11-17T10:54:44.493Z,71.78
2022-11-17T10:57:27.622Z,71.60
2022-11-17T11:00:01.054Z,72.03
2022-11-17T11:02:39.817Z,72.10
2022-11-17T11:05:22.023Z,71.46
2022-11-17T11:07:50.422Z,72.07
2022-11-17T11:10:32.862Z,72.03
2022-11-17T11:13:14.107Z,72.40
2022-11-17T11:15:43.018Z,72.49
2022-11-17T11:18:17.183Z,72.32
2022-11-17T11:21:14.823Z,71.78
2022-11-17T11:23:53.931Z,72.21
2022-11-17T11:26:25.620Z,72.75
2022-11-17T11:29:25.345Z,72.68
2022-11-17T11:32:01.891Z,72.90
2022-11-17T11:34:33.758Z,72.72
2022-11-17T11:37:17.050Z,72.85
2022-11-17T11:39:59.843Z,72.44
2022-11-17T11:42:46.953Z,72.41
2022-11-17T11:45:21.338Z,73.14
2022-11-17T11:48:14.948Z,72.32
2022-11-17T11:50:50.097Z,72.74
2022-11-17T11:53:38.680Z,73.19
2022-11-17T11:56:29.608Z,73.06
2022-11-17T11:59:42.936Z,72.46
2022-11-17T12:02:27.951Z,72.07
2022-11-17T12:05:01.789Z,72.69
2022-11-17T12:07:45.852Z,72.52
2022-11-17T12:10:25.356Z,72.28
2022-11-17T12:12:54.648Z,72.53
2022-11-17T12:15:23.420Z,72.33
2022-11-17T12:18:04.818Z,72.47
2022-11-17T12:20:39.608Z,73.35
2022-11-17T12:23:25.998Z,73.43
2022-11-17T12:25:57.109Z,73.15
2022-11-17T12:28:37.254Z,73.36
2022-11-17T12:31:12.375Z,73.65
2022-11-17T12:33:56.345Z,74.13
2022-11-17T12:36:30.240Z,73.96
2022-11-17T12:39:02.509Z,74.13
2022-11-17T12:41:49.661Z,74.17
2022-11-17T12:44:39.643Z,73.91
2022-11-17T12:47:14.287Z,73.80
2022-11-17T12:50:03.528Z,73.73
2022-11-17T12:52:31.585Z,73.07
2022-11-17T12:55:24.748Z,73.49
2022-11-17T12:58:09.151Z,73.16
2022-11-17T13:01:06.485Z,73.78
2022-11-17T13:03:45.332Z,73.43
2022-11-17T13:09:03.449Z,72.69
2022-11-17T13:11:31.771Z,73.51
2022-11-17T16:51:21.506Z,74.46
2022-11-17T16:53:57.407Z,74.79
2022-11-17T16:56:26.350Z,74.53
2022-11-17T16:58:55.612Z,75.34
2022-11-17T17:01:26.987Z,74.77
2022-11-17T17:04:00.493Z,75.08
2022-11-17T17:06:29.451Z,74.94
2022-11-17T17:09:00.371Z,75.04
2022-11-17T17:11:32.332Z,75.33
2022-11-17T17:14:05.891Z,75.19
2022-11-17T17:16:39.131Z,75.12
2022-11-17T17:20:07.864Z,75.42
2022-11-17T17:22:37.194Z,75.19
2022-11-17T17:25:06.366Z,75.60
2022-11-17T17:27:35.122Z,75.48
2022-11-17T17:30:03.951Z,76.02
2022-11-17T17:32:32.910Z,75.82
2022-11-17T17:35:01.803Z,75.70
2022-11-17T17:37:34.066Z,75.65
2022-11-17T17:40:03.152Z,75.30
2022-11-17T17:42:31.909Z,75.51
2022-11-17T17:45:00.522Z,75.39
2022-11-17T17:47:29.497Z,75.21
2022-11-17T17:49:58.379Z,75.33
